sensor_id;sensor_type;location;lat;lon;timestamp;P1;durP1;ratioP1;P2;durP2;ratioP2
9950;SDS011;24074;49.254;6.702;2023-12-14T00:01:11;9.03;;;6.67;;
9950;SDS011;24074;49.254;6.702;2023-12-14T00:03:38;9.40;;;7.00;;
9950;SDS011;24074;49.254;6.702;2023-12-14T00:06:06;7.97;;;7.17;;
9950;SDS011;24074;49.254;6.702;2023-12-14T00:08:32;10.20;;;7.30;;
9950;SDS011;24074;49.254;6.702;2023-12-14T00:11:02;7.73;;;6.20;;
9950;SDS011;24074;49.254;6.702;2023-12-14T00:13:31;9.30;;;6.53;;
9950;SDS011;24074;49.254;6.702;2023-12-14T00:15:57;8.90;;;6.60;;
9950;SDS011;24074;49.254;6.702;2023-12-14T00:18:23;9.87;;;6.90;;
9950;SDS011;24074;49.254;6.702;2023-12-14T00:20:48;7.70;;;6.50;;
9950;SDS011;24074;49.254;6.702;2023-12-14T00:23:14;7.90;;;5.93;;
9950;SDS011;24074;49.254;6.702;2023-12-14T00:25:39;8.83;;;6.43;;
9950;SDS011;24074;49.254;6.702;2023-12-14T00:28:05;7.13;;;6.30;;
9950;SDS011;24074;49.254;6.702;2023-12-14T00:30:30;7.67;;;6.63;;
9950;SDS011;24074;49.254;6.702;2023-12-14T00:32:56;8.63;;;6.60;;
9950;SDS011;24074;49.254;6.702;2023-12-14T00:35:21;7.33;;;6.60;;
9950;SDS011;24074;49.254;6.702;2023-12-14T00:37:47;9.07;;;6.10;;
9950;SDS011;24074;49.254;6.702;2023-12-14T00:40:13;7.70;;;6.03;;
9950;SDS011;24074;49.254;6.702;2023-12-14T00:42:38;7.93;;;6.20;;
9950;SDS011;24074;49.254;6.702;2023-12-14T00:45:04;9.33;;;6.53;;
9950;SDS011;24074;49.254;6.702;2023-12-14T00:47:30;7.07;;;6.00;;
9950;SDS011;24074;49.254;6.702;2023-12-14T00:49:55;10.17;;;6.73;;
9950;SDS011;24074;49.254;6.702;2023-12-14T00:52:21;8.23;;;6.90;;
9950;SDS011;24074;49.254;6.702;2023-12-14T00:54:46;8.63;;;6.90;;
9950;SDS011;24074;49.254;6.702;2023-12-14T00:57:12;7.50;;;6.30;;
9950;SDS011;24074;49.254;6.702;2023-12-14T00:59:37;8.33;;;6.23;;
9950;SDS011;24074;49.254;6.702;2023-12-14T01:02:03;8.60;;;6.10;;
9950;SDS011;24074;49.254;6.702;2023-12-14T01:04:29;7.87;;;6.17;;
9950;SDS011;24074;49.254;6.702;2023-12-14T01:06:54;9.27;;;6.40;;
9950;SDS011;24074;49.254;6.702;2023-12-14T01:09:20;6.73;;;5.83;;
9950;SDS011;24074;49.254;6.702;2023-12-14T01:11:45;8.40;;;6.67;;
9950;SDS011;24074;49.254;6.702;2023-12-14T01:14:13;10.17;;;6.50;;
9950;SDS011;24074;49.254;6.702;2023-12-14T01:16:39;7.57;;;6.77;;
9950;SDS011;24074;49.254;6.702;2023-12-14T01:19:05;9.37;;;7.13;;
9950;SDS011;24074;49.254;6.702;2023-12-14T01:21:31;8.60;;;6.67;;
9950;SDS011;24074;49.254;6.702;2023-12-14T01:23:57;8.47;;;7.00;;
9950;SDS011;24074;49.254;6.702;2023-12-14T01:26:22;9.57;;;6.97;;
9950;SDS011;24074;49.254;6.702;2023-12-14T01:28:48;9.63;;;6.67;;
9950;SDS011;24074;49.254;6.702;2023-12-14T01:31:13;10.53;;;6.83;;
9950;SDS011;24074;49.254;6.702;2023-12-14T01:33:42;9.60;;;6.77;;
9950;SDS011;24074;49.254;6.702;2023-12-14T01:36:07;11.00;;;6.80;;
9950;SDS011;24074;49.254;6.702;2023-12-14T01:38:33;9.90;;;7.10;;
9950;SDS011;24074;49.254;6.702;2023-12-14T01:40:59;9.93;;;6.90;;
9950;SDS011;24074;49.254;6.702;2023-12-14T01:43:24;8.27;;;6.80;;
9950;SDS011;24074;49.254;6.702;2023-12-14T01:45:50;8.40;;;6.70;;
9950;SDS011;24074;49.254;6.702;2023-12-14T01:48:16;7.80;;;6.67;;
9950;SDS011;24074;49.254;6.702;2023-12-14T01:50:41;8.20;;;7.03;;
9950;SDS011;24074;49.254;6.702;2023-12-14T01:53:07;7.73;;;6.90;;
9950;SDS011;24074;49.254;6.702;2023-12-14T01:55:32;8.57;;;6.83;;
9950;SDS011;24074;49.254;6.702;2023-12-14T01:57:59;9.60;;;6.83;;
9950;SDS011;24074;49.254;6.702;2023-12-14T02:00:29;8.67;;;7.30;;
9950;SDS011;24074;49.254;6.702;2023-12-14T02:03:02;8.17;;;7.13;;
9950;SDS011;24074;49.254;6.702;2023-12-14T02:05:28;7.40;;;6.57;;
9950;SDS011;24074;49.254;6.702;2023-12-14T02:07:54;8.03;;;6.97;;
9950;SDS011;24074;49.254;6.702;2023-12-14T02:10:19;7.77;;;6.37;;
9950;SDS011;24074;49.254;6.702;2023-12-14T02:12:45;7.30;;;6.23;;
9950;SDS011;24074;49.254;6.702;2023-12-14T02:15:11;7.00;;;5.90;;
9950;SDS011;24074;49.254;6.702;2023-12-14T02:17:36;7.23;;;5.70;;
9950;SDS011;24074;49.254;6.702;2023-12-14T02:20:02;7.23;;;5.30;;
9950;SDS011;24074;49.254;6.702;2023-12-14T02:22:33;6.33;;;4.90;;
9950;SDS011;24074;49.254;6.702;2023-12-14T02:25:15;6.00;;;4.80;;
9950;SDS011;24074;49.254;6.702;2023-12-14T02:27:41;6.07;;;4.63;;
9950;SDS011;24074;49.254;6.702;2023-12-14T02:30:07;5.93;;;4.53;;
9950;SDS011;24074;49.254;6.702;2023-12-14T02:32:33;6.67;;;4.87;;
9950;SDS011;24074;49.254;6.702;2023-12-14T02:34:58;6.60;;;4.90;;
9950;SDS011;24074;49.254;6.702;2023-12-14T02:37:24;5.50;;;4.70;;
9950;SDS011;24074;49.254;6.702;2023-12-14T02:39:49;5.57;;;4.83;;
9950;SDS011;24074;49.254;6.702;2023-12-14T02:42:15;6.93;;;5.17;;
9950;SDS011;24074;49.254;6.702;2023-12-14T02:44:41;5.67;;;4.67;;
9950;SDS011;24074;49.254;6.702;2023-12-14T02:47:06;6.37;;;5.13;;
9950;SDS011;24074;49.254;6.702;2023-12-14T02:49:32;6.60;;;5.40;;
9950;SDS011;24074;49.254;6.702;2023-12-14T02:51:58;7.93;;;5.20;;
9950;SDS011;24074;49.254;6.702;2023-12-14T02:54:24;6.40;;;5.10;;
9950;SDS011;24074;49.254;6.702;2023-12-14T02:56:49;6.33;;;5.50;;
9950;SDS011;24074;49.254;6.702;2023-12-14T02:59:15;7.10;;;5.37;;
9950;SDS011;24074;49.254;6.702;2023-12-14T03:01:40;6.53;;;5.17;;
9950;SDS011;24074;49.254;6.702;2023-12-14T03:04:06;7.93;;;5.97;;
9950;SDS011;24074;49.254;6.702;2023-12-14T03:06:32;7.63;;;5.37;;
9950;SDS011;24074;49.254;6.702;2023-12-14T03:08:58;6.83;;;5.50;;
9950;SDS011;24074;49.254;6.702;2023-12-14T03:11:25;6.67;;;5.27;;
9950;SDS011;24074;49.254;6.702;2023-12-14T03:13:51;8.97;;;5.43;;
9950;SDS011;24074;49.254;6.702;2023-12-14T03:16:17;6.23;;;5.53;;
9950;SDS011;24074;49.254;6.702;2023-12-14T03:18:43;7.13;;;6.23;;
9950;SDS011;24074;49.254;6.702;2023-12-14T03:21:09;7.23;;;5.90;;
9950;SDS011;24074;49.254;6.702;2023-12-14T03:23:35;6.80;;;5.50;;
9950;SDS011;24074;49.254;6.702;2023-12-14T03:26:01;7.50;;;6.63;;
9950;SDS011;24074;49.254;6.702;2023-12-14T03:28:27;8.07;;;6.67;;
9950;SDS011;24074;49.254;6.702;2023-12-14T03:30:53;7.63;;;6.20;;
9950;SDS011;24074;49.254;6.702;2023-12-14T03:33:18;9.47;;;6.77;;
9950;SDS011;24074;49.254;6.702;2023-12-14T03:35:44;9.53;;;7.50;;
9950;SDS011;24074;49.254;6.702;2023-12-14T03:38:12;9.27;;;7.30;;
9950;SDS011;24074;49.254;6.702;2023-12-14T03:40:38;10.73;;;7.43;;
9950;SDS011;24074;49.254;6.702;2023-12-14T03:43:04;10.27;;;8.23;;
9950;SDS011;24074;49.254;6.702;2023-12-14T03:45:30;10.03;;;8.20;;
9950;SDS011;24074;49.254;6.702;2023-12-14T03:47:55;11.70;;;8.33;;
9950;SDS011;24074;49.254;6.702;2023-12-14T03:50:21;11.73;;;8.93;;
9950;SDS011;24074;49.254;6.702;2023-12-14T03:52:47;11.33;;;8.93;;
9950;SDS011;24074;49.254;6.702;2023-12-14T03:55:13;12.67;;;9.10;;
9950;SDS011;24074;49.254;6.702;2023-12-14T03:57:40;13.00;;;8.97;;
9950;SDS011;24074;49.254;6.702;2023-12-14T04:00:07;11.43;;;8.60;;
9950;SDS011;24074;49.254;6.702;2023-12-14T04:02:39;9.90;;;7.63;;
9950;SDS011;24074;49.254;6.702;2023-12-14T04:05:08;9.83;;;8.30;;
9950;SDS011;24074;49.254;6.702;2023-12-14T04:07:37;11.10;;;8.03;;
9950;SDS011;24074;49.254;6.702;2023-12-14T04:10:14;13.30;;;8.57;;
9950;SDS011;24074;49.254;6.702;2023-12-14T04:12:40;12.07;;;8.37;;
9950;SDS011;24074;49.254;6.702;2023-12-14T04:15:06;11.20;;;8.60;;
9950;SDS011;24074;49.254;6.702;2023-12-14T04:17:34;11.90;;;8.90;;
9950;SDS011;24074;49.254;6.702;2023-12-14T04:20:00;11.87;;;8.47;;
9950;SDS011;24074;49.254;6.702;2023-12-14T04:22:26;13.83;;;8.83;;
9950;SDS011;24074;49.254;6.702;2023-12-14T04:24:51;12.20;;;9.20;;
9950;SDS011;24074;49.254;6.702;2023-12-14T04:27:18;11.67;;;9.40;;
9950;SDS011;24074;49.254;6.702;2023-12-14T04:29:43;11.33;;;8.83;;
9950;SDS011;24074;49.254;6.702;2023-12-14T04:32:09;12.70;;;9.63;;
9950;SDS011;24074;49.254;6.702;2023-12-14T04:34:35;13.20;;;9.20;;
9950;SDS011;24074;49.254;6.702;2023-12-14T04:37:01;11.73;;;9.17;;
9950;SDS011;24074;49.254;6.702;2023-12-14T04:39:27;12.57;;;9.17;;
9950;SDS011;24074;49.254;6.702;2023-12-14T04:41:53;13.40;;;10.27;;
9950;SDS011;24074;49.254;6.702;2023-12-14T04:44:19;11.20;;;8.80;;
9950;SDS011;24074;49.254;6.702;2023-12-14T04:46:46;12.23;;;8.67;;
9950;SDS011;24074;49.254;6.702;2023-12-14T04:49:12;11.47;;;8.83;;
9950;SDS011;24074;49.254;6.702;2023-12-14T04:51:37;12.63;;;9.57;;
9950;SDS011;24074;49.254;6.702;2023-12-14T04:54:03;11.73;;;8.93;;
9950;SDS011;24074;49.254;6.702;2023-12-14T04:56:29;13.63;;;9.23;;
9950;SDS011;24074;49.254;6.702;2023-12-14T04:58:55;13.47;;;9.73;;
9950;SDS011;24074;49.254;6.702;2023-12-14T05:01:20;15.73;;;9.93;;
9950;SDS011;24074;49.254;6.702;2023-12-14T05:03:46;14.73;;;9.97;;
9950;SDS011;24074;49.254;6.702;2023-12-14T05:06:12;13.07;;;9.50;;
9950;SDS011;24074;49.254;6.702;2023-12-14T05:08:38;13.50;;;9.37;;
9950;SDS011;24074;49.254;6.702;2023-12-14T05:11:03;12.67;;;9.80;;
9950;SDS011;24074;49.254;6.702;2023-12-14T05:13:29;15.20;;;9.90;;
9950;SDS011;24074;49.254;6.702;2023-12-14T05:15:55;15.10;;;10.63;;
9950;SDS011;24074;49.254;6.702;2023-12-14T05:18:22;13.47;;;8.83;;
9950;SDS011;24074;49.254;6.702;2023-12-14T05:20:48;13.23;;;9.30;;
9950;SDS011;24074;49.254;6.702;2023-12-14T05:23:14;12.60;;;9.50;;
9950;SDS011;24074;49.254;6.702;2023-12-14T05:25:39;12.20;;;9.33;;
9950;SDS011;24074;49.254;6.702;2023-12-14T05:28:05;15.50;;;10.03;;
9950;SDS011;24074;49.254;6.702;2023-12-14T05:30:31;13.03;;;10.00;;
9950;SDS011;24074;49.254;6.702;2023-12-14T05:32:56;13.30;;;9.83;;
9950;SDS011;24074;49.254;6.702;2023-12-14T05:35:22;11.53;;;9.07;;
9950;SDS011;24074;49.254;6.702;2023-12-14T05:37:48;15.17;;;9.77;;
9950;SDS011;24074;49.254;6.702;2023-12-14T05:40:13;13.37;;;9.73;;
9950;SDS011;24074;49.254;6.702;2023-12-14T05:42:39;15.47;;;9.77;;
9950;SDS011;24074;49.254;6.702;2023-12-14T05:45:05;13.40;;;9.07;;
9950;SDS011;24074;49.254;6.702;2023-12-14T05:47:31;12.77;;;9.23;;
9950;SDS011;24074;49.254;6.702;2023-12-14T05:49:59;14.33;;;10.17;;
9950;SDS011;24074;49.254;6.702;2023-12-14T05:52:25;16.40;;;9.33;;
9950;SDS011;24074;49.254;6.702;2023-12-14T05:54:50;14.40;;;9.40;;
9950;SDS011;24074;49.254;6.702;2023-12-14T05:57:16;13.27;;;8.80;;
9950;SDS011;24074;49.254;6.702;2023-12-14T05:59:41;12.07;;;8.83;;
9950;SDS011;24074;49.254;6.702;2023-12-14T06:02:07;15.63;;;9.27;;
9950;SDS011;24074;49.254;6.702;2023-12-14T06:04:33;11.57;;;8.63;;
9950;SDS011;24074;49.254;6.702;2023-12-14T06:06:59;14.37;;;8.87;;
9950;SDS011;24074;49.254;6.702;2023-12-14T06:09:24;13.53;;;9.13;;
9950;SDS011;24074;49.254;6.702;2023-12-14T06:11:58;14.23;;;9.13;;
9950;SDS011;24074;49.254;6.702;2023-12-14T06:14:28;12.93;;;8.67;;
9950;SDS011;24074;49.254;6.702;2023-12-14T06:16:54;12.00;;;9.13;;
9950;SDS011;24074;49.254;6.702;2023-12-14T06:19:19;11.60;;;8.80;;
9950;SDS011;24074;49.254;6.702;2023-12-14T06:21:46;14.80;;;9.37;;
9950;SDS011;24074;49.254;6.702;2023-12-14T06:24:13;14.83;;;9.73;;
9950;SDS011;24074;49.254;6.702;2023-12-14T06:26:42;14.00;;;9.37;;
9950;SDS011;24074;49.254;6.702;2023-12-14T06:29:08;14.03;;;10.20;;
9950;SDS011;24074;49.254;6.702;2023-12-14T06:31:34;13.63;;;9.77;;
9950;SDS011;24074;49.254;6.702;2023-12-14T06:34:01;13.73;;;10.00;;
9950;SDS011;24074;49.254;6.702;2023-12-14T06:36:29;12.70;;;9.07;;
9950;SDS011;24074;49.254;6.702;2023-12-14T06:38:55;13.37;;;9.30;;
9950;SDS011;24074;49.254;6.702;2023-12-14T06:41:21;13.70;;;9.50;;
9950;SDS011;24074;49.254;6.702;2023-12-14T06:43:47;13.83;;;9.97;;
9950;SDS011;24074;49.254;6.702;2023-12-14T06:46:14;13.50;;;9.80;;
9950;SDS011;24074;49.254;6.702;2023-12-14T06:48:40;14.43;;;9.73;;
9950;SDS011;24074;49.254;6.702;2023-12-14T06:51:05;14.47;;;9.40;;
9950;SDS011;24074;49.254;6.702;2023-12-14T06:53:31;11.87;;;8.93;;
9950;SDS011;24074;49.254;6.702;2023-12-14T06:55:56;15.53;;;9.93;;
9950;SDS011;24074;49.254;6.702;2023-12-14T06:58:22;13.23;;;9.70;;
9950;SDS011;24074;49.254;6.702;2023-12-14T07:00:47;13.43;;;9.30;;
9950;SDS011;24074;49.254;6.702;2023-12-14T07:03:13;15.17;;;9.90;;
9950;SDS011;24074;49.254;6.702;2023-12-14T07:05:39;15.30;;;9.47;;
9950;SDS011;24074;49.254;6.702;2023-12-14T07:08:04;16.30;;;9.93;;
9950;SDS011;24074;49.254;6.702;2023-12-14T07:10:30;15.57;;;9.17;;
9950;SDS011;24074;49.254;6.702;2023-12-14T07:12:56;11.70;;;9.07;;
9950;SDS011;24074;49.254;6.702;2023-12-14T07:15:24;13.27;;;9.57;;
9950;SDS011;24074;49.254;6.702;2023-12-14T07:17:50;13.60;;;9.73;;
9950;SDS011;24074;49.254;6.702;2023-12-14T07:20:18;13.23;;;9.93;;
9950;SDS011;24074;49.254;6.702;2023-12-14T07:22:44;17.97;;;10.70;;
9950;SDS011;24074;49.254;6.702;2023-12-14T07:25:10;14.17;;;9.47;;
9950;SDS011;24074;49.254;6.702;2023-12-14T07:27:35;14.30;;;8.83;;
9950;SDS011;24074;49.254;6.702;2023-12-14T07:30:01;11.93;;;9.33;;
9950;SDS011;24074;49.254;6.702;2023-12-14T07:32:26;13.97;;;10.60;;
9950;SDS011;24074;49.254;6.702;2023-12-14T07:34:52;13.30;;;9.67;;
9950;SDS011;24074;49.254;6.702;2023-12-14T07:37:18;13.53;;;9.43;;
9950;SDS011;24074;49.254;6.702;2023-12-14T07:39:43;13.13;;;9.43;;
9950;SDS011;24074;49.254;6.702;2023-12-14T07:42:12;12.60;;;9.73;;
9950;SDS011;24074;49.254;6.702;2023-12-14T07:44:42;12.83;;;9.27;;
9950;SDS011;24074;49.254;6.702;2023-12-14T07:47:07;12.70;;;8.90;;
9950;SDS011;24074;49.254;6.702;2023-12-14T07:49:33;11.23;;;8.47;;
9950;SDS011;24074;49.254;6.702;2023-12-14T07:51:58;13.03;;;9.13;;
9950;SDS011;24074;49.254;6.702;2023-12-14T07:54:24;12.67;;;9.03;;
9950;SDS011;24074;49.254;6.702;2023-12-14T07:56:51;13.07;;;9.63;;
9950;SDS011;24074;49.254;6.702;2023-12-14T07:59:17;13.27;;;9.47;;
9950;SDS011;24074;49.254;6.702;2023-12-14T08:01:43;11.73;;;8.73;;
9950;SDS011;24074;49.254;6.702;2023-12-14T08:04:08;12.23;;;8.70;;
9950;SDS011;24074;49.254;6.702;2023-12-14T08:06:36;12.17;;;8.53;;
9950;SDS011;24074;49.254;6.702;2023-12-14T08:09:05;11.83;;;8.77;;
9950;SDS011;24074;49.254;6.702;2023-12-14T08:11:32;13.80;;;9.30;;
9950;SDS011;24074;49.254;6.702;2023-12-14T08:13:57;14.20;;;9.60;;
9950;SDS011;24074;49.254;6.702;2023-12-14T08:16:23;12.67;;;9.60;;
9950;SDS011;24074;49.254;6.702;2023-12-14T08:18:49;12.60;;;9.30;;
9950;SDS011;24074;49.254;6.702;2023-12-14T08:21:15;12.10;;;9.07;;
9950;SDS011;24074;49.254;6.702;2023-12-14T08:23:41;13.90;;;9.40;;
9950;SDS011;24074;49.254;6.702;2023-12-14T08:26:07;13.43;;;9.40;;
9950;SDS011;24074;49.254;6.702;2023-12-14T08:28:35;13.57;;;9.20;;
9950;SDS011;24074;49.254;6.702;2023-12-14T08:31:00;12.23;;;9.40;;
9950;SDS011;24074;49.254;6.702;2023-12-14T08:33:28;13.03;;;9.43;;
9950;SDS011;24074;49.254;6.702;2023-12-14T08:35:54;11.43;;;8.93;;
9950;SDS011;24074;49.254;6.702;2023-12-14T08:38:20;13.60;;;9.17;;
9950;SDS011;24074;49.254;6.702;2023-12-14T08:40:45;12.13;;;9.57;;
9950;SDS011;24074;49.254;6.702;2023-12-14T08:43:11;12.60;;;9.33;;
9950;SDS011;24074;49.254;6.702;2023-12-14T08:45:37;13.07;;;9.20;;
9950;SDS011;24074;49.254;6.702;2023-12-14T08:48:03;11.83;;;8.63;;
9950;SDS011;24074;49.254;6.702;2023-12-14T08:50:28;11.80;;;9.03;;
9950;SDS011;24074;49.254;6.702;2023-12-14T08:52:54;11.03;;;8.83;;
9950;SDS011;24074;49.254;6.702;2023-12-14T08:55:20;12.83;;;9.27;;
9950;SDS011;24074;49.254;6.702;2023-12-14T08:57:46;12.97;;;9.70;;
9950;SDS011;24074;49.254;6.702;2023-12-14T09:00:12;11.83;;;8.73;;
9950;SDS011;24074;49.254;6.702;2023-12-14T09:02:38;15.53;;;10.97;;
9950;SDS011;24074;49.254;6.702;2023-12-14T09:05:04;12.67;;;9.00;;
9950;SDS011;24074;49.254;6.702;2023-12-14T09:07:30;12.20;;;9.03;;
9950;SDS011;24074;49.254;6.702;2023-12-14T09:09:56;12.93;;;9.40;;
9950;SDS011;24074;49.254;6.702;2023-12-14T09:12:22;12.23;;;8.73;;
9950;SDS011;24074;49.254;6.702;2023-12-14T09:14:47;12.43;;;9.43;;
9950;SDS011;24074;49.254;6.702;2023-12-14T09:17:13;11.60;;;8.53;;
9950;SDS011;24074;49.254;6.702;2023-12-14T09:19:39;10.83;;;8.77;;
9950;SDS011;24074;49.254;6.702;2023-12-14T09:22:04;11.87;;;8.57;;
9950;SDS011;24074;49.254;6.702;2023-12-14T09:24:30;10.53;;;8.23;;
9950;SDS011;24074;49.254;6.702;2023-12-14T09:26:55;12.03;;;8.90;;
9950;SDS011;24074;49.254;6.702;2023-12-14T09:29:21;11.33;;;8.43;;
9950;SDS011;24074;49.254;6.702;2023-12-14T09:31:46;11.40;;;8.20;;
9950;SDS011;24074;49.254;6.702;2023-12-14T09:34:12;10.87;;;8.27;;
9950;SDS011;24074;49.254;6.702;2023-12-14T09:36:39;11.13;;;7.50;;
9950;SDS011;24074;49.254;6.702;2023-12-14T09:39:05;10.83;;;8.27;;
9950;SDS011;24074;49.254;6.702;2023-12-14T09:41:34;12.03;;;8.47;;
9950;SDS011;24074;49.254;6.702;2023-12-14T09:43:59;11.93;;;8.20;;
9950;SDS011;24074;49.254;6.702;2023-12-14T09:46:27;9.27;;;7.50;;
9950;SDS011;24074;49.254;6.702;2023-12-14T09:48:52;10.87;;;7.83;;
9950;SDS011;24074;49.254;6.702;2023-12-14T09:51:20;10.77;;;7.97;;
9950;SDS011;24074;49.254;6.702;2023-12-14T09:53:48;11.97;;;7.80;;
9950;SDS011;24074;49.254;6.702;2023-12-14T09:56:14;9.27;;;7.83;;
9950;SDS011;24074;49.254;6.702;2023-12-14T09:58:39;10.23;;;8.00;;
9950;SDS011;24074;49.254;6.702;2023-12-14T10:01:21;12.57;;;8.73;;
9950;SDS011;24074;49.254;6.702;2023-12-14T10:03:48;16.27;;;12.77;;
9950;SDS011;24074;49.254;6.702;2023-12-14T10:06:13;11.83;;;9.30;;
9950;SDS011;24074;49.254;6.702;2023-12-14T10:08:39;13.50;;;9.73;;
9950;SDS011;24074;49.254;6.702;2023-12-14T10:11:05;11.77;;;9.90;;
9950;SDS011;24074;49.254;6.702;2023-12-14T10:13:40;9.47;;;8.03;;
9950;SDS011;24074;49.254;6.702;2023-12-14T10:16:07;13.70;;;12.03;;
9950;SDS011;24074;49.254;6.702;2023-12-14T10:18:33;12.40;;;9.17;;
9950;SDS011;24074;49.254;6.702;2023-12-14T10:21:02;9.50;;;7.43;;
9950;SDS011;24074;49.254;6.702;2023-12-14T10:23:28;9.73;;;7.53;;
9950;SDS011;24074;49.254;6.702;2023-12-14T10:25:54;10.10;;;8.20;;
9950;SDS011;24074;49.254;6.702;2023-12-14T10:28:20;11.37;;;7.80;;
9950;SDS011;24074;49.254;6.702;2023-12-14T10:30:47;10.37;;;7.00;;
9950;SDS011;24074;49.254;6.702;2023-12-14T10:33:12;9.87;;;6.87;;
9950;SDS011;24074;49.254;6.702;2023-12-14T10:35:39;8.20;;;6.33;;
9950;SDS011;24074;49.254;6.702;2023-12-14T10:38:07;9.77;;;7.53;;
9950;SDS011;24074;49.254;6.702;2023-12-14T10:40:35;10.43;;;6.77;;
9950;SDS011;24074;49.254;6.702;2023-12-14T10:43:08;9.00;;;7.03;;
9950;SDS011;24074;49.254;6.702;2023-12-14T10:45:35;9.23;;;7.63;;
9950;SDS011;24074;49.254;6.702;2023-12-14T10:48:02;10.27;;;8.20;;
9950;SDS011;24074;49.254;6.702;2023-12-14T10:50:30;8.90;;;7.43;;
9950;SDS011;24074;49.254;6.702;2023-12-14T10:52:58;8.33;;;7.17;;
9950;SDS011;24074;49.254;6.702;2023-12-14T10:55:31;9.67;;;6.73;;
9950;SDS011;24074;49.254;6.702;2023-12-14T10:58:02;10.40;;;6.87;;
9950;SDS011;24074;49.254;6.702;2023-12-14T11:00:29;10.67;;;7.47;;
9950;SDS011;24074;49.254;6.702;2023-12-14T11:02:59;8.87;;;6.90;;
9950;SDS011;24074;49.254;6.702;2023-12-14T11:05:26;8.77;;;6.77;;
9950;SDS011;24074;49.254;6.702;2023-12-14T11:07:55;9.03;;;6.80;;
9950;SDS011;24074;49.254;6.702;2023-12-14T11:10:36;10.17;;;6.17;;
9950;SDS011;24074;49.254;6.702;2023-12-14T11:13:17;8.67;;;6.17;;
9950;SDS011;24074;49.254;6.702;2023-12-14T11:15:47;8.13;;;6.40;;
9950;SDS011;24074;49.254;6.702;2023-12-14T11:25:56;7.23;;;5.20;;
9950;SDS011;24074;49.254;6.702;2023-12-14T11:28:23;7.37;;;5.03;;
9950;SDS011;24074;49.254;6.702;2023-12-14T11:30:49;5.77;;;4.90;;
9950;SDS011;24074;49.254;6.702;2023-12-14T11:33:15;6.30;;;5.10;;
9950;SDS011;24074;49.254;6.702;2023-12-14T11:35:41;6.30;;;5.20;;
9950;SDS011;24074;49.254;6.702;2023-12-14T11:38:07;6.13;;;5.10;;
9950;SDS011;24074;49.254;6.702;2023-12-14T11:40:38;7.77;;;5.27;;
9950;SDS011;24074;49.254;6.702;2023-12-14T11:43:04;7.60;;;5.07;;
9950;SDS011;24074;49.254;6.702;2023-12-14T11:45:32;8.00;;;4.77;;
9950;SDS011;24074;49.254;6.702;2023-12-14T11:48:11;5.97;;;4.70;;
9950;SDS011;24074;49.254;6.702;2023-12-14T11:50:38;6.97;;;5.40;;
9950;SDS011;24074;49.254;6.702;2023-12-14T11:53:04;7.47;;;4.97;;
9950;SDS011;24074;49.254;6.702;2023-12-14T11:55:31;7.63;;;4.53;;
9950;SDS011;24074;49.254;6.702;2023-12-14T11:57:57;7.60;;;4.63;;
9950;SDS011;24074;49.254;6.702;2023-12-14T12:00:26;5.43;;;4.30;;
9950;SDS011;24074;49.254;6.702;2023-12-14T12:03:15;6.37;;;4.50;;
9950;SDS011;24074;49.254;6.702;2023-12-14T12:05:43;6.67;;;4.20;;
9950;SDS011;24074;49.254;6.702;2023-12-14T12:08:14;6.00;;;4.03;;
9950;SDS011;24074;49.254;6.702;2023-12-14T12:10:43;6.00;;;4.57;;
9950;SDS011;24074;49.254;6.702;2023-12-14T12:13:19;6.20;;;4.93;;
9950;SDS011;24074;49.254;6.702;2023-12-14T12:15:45;6.50;;;4.40;;
9950;SDS011;24074;49.254;6.702;2023-12-14T12:18:12;6.27;;;4.27;;
9950;SDS011;24074;49.254;6.702;2023-12-14T12:20:39;5.83;;;4.50;;
9950;SDS011;24074;49.254;6.702;2023-12-14T12:23:05;6.90;;;4.80;;
9950;SDS011;24074;49.254;6.702;2023-12-14T12:25:31;6.53;;;4.50;;
9950;SDS011;24074;49.254;6.702;2023-12-14T12:27:58;7.23;;;5.23;;
9950;SDS011;24074;49.254;6.702;2023-12-14T12:30:24;6.10;;;4.90;;
9950;SDS011;24074;49.254;6.702;2023-12-14T12:32:50;6.00;;;4.70;;
9950;SDS011;24074;49.254;6.702;2023-12-14T12:35:17;6.43;;;5.10;;
9950;SDS011;24074;49.254;6.702;2023-12-14T12:37:43;6.87;;;5.30;;
9950;SDS011;24074;49.254;6.702;2023-12-14T12:40:09;8.10;;;5.23;;
9950;SDS011;24074;49.254;6.702;2023-12-14T12:42:35;10.33;;;8.60;;
9950;SDS011;24074;49.254;6.702;2023-12-14T12:45:01;31.40;;;24.67;;
9950;SDS011;24074;49.254;6.702;2023-12-14T12:47:27;6.97;;;5.93;;
9950;SDS011;24074;49.254;6.702;2023-12-14T12:49:52;8.47;;;6.20;;
9950;SDS011;24074;49.254;6.702;2023-12-14T12:52:18;8.87;;;6.60;;
9950;SDS011;24074;49.254;6.702;2023-12-14T12:54:43;11.17;;;6.67;;
9950;SDS011;24074;49.254;6.702;2023-12-14T12:57:09;8.00;;;6.13;;
9950;SDS011;24074;49.254;6.702;2023-12-14T12:59:35;7.77;;;4.73;;
9950;SDS011;24074;49.254;6.702;2023-12-14T13:02:00;6.50;;;4.57;;
9950;SDS011;24074;49.254;6.702;2023-12-14T13:04:27;6.53;;;3.87;;
9950;SDS011;24074;49.254;6.702;2023-12-14T13:06:55;4.90;;;3.63;;
9950;SDS011;24074;49.254;6.702;2023-12-14T13:09:21;4.47;;;3.53;;
9950;SDS011;24074;49.254;6.702;2023-12-14T13:11:47;4.30;;;3.43;;
9950;SDS011;24074;49.254;6.702;2023-12-14T13:14:15;4.07;;;3.50;;
9950;SDS011;24074;49.254;6.702;2023-12-14T13:16:40;3.97;;;3.50;;
9950;SDS011;24074;49.254;6.702;2023-12-14T13:19:06;4.17;;;3.00;;
9950;SDS011;24074;49.254;6.702;2023-12-14T13:21:32;3.67;;;3.13;;
9950;SDS011;24074;49.254;6.702;2023-12-14T13:24:01;3.63;;;3.13;;
9950;SDS011;24074;49.254;6.702;2023-12-14T13:26:27;4.23;;;2.83;;
9950;SDS011;24074;49.254;6.702;2023-12-14T13:28:53;4.73;;;3.00;;
9950;SDS011;24074;49.254;6.702;2023-12-14T13:31:19;3.33;;;2.90;;
9950;SDS011;24074;49.254;6.702;2023-12-14T13:33:45;3.70;;;2.90;;
9950;SDS011;24074;49.254;6.702;2023-12-14T13:36:11;3.67;;;3.00;;
9950;SDS011;24074;49.254;6.702;2023-12-14T13:38:37;3.70;;;3.10;;
9950;SDS011;24074;49.254;6.702;2023-12-14T13:41:03;4.33;;;3.70;;
9950;SDS011;24074;49.254;6.702;2023-12-14T13:43:29;13.03;;;11.97;;
9950;SDS011;24074;49.254;6.702;2023-12-14T13:45:55;4.90;;;4.40;;
9950;SDS011;24074;49.254;6.702;2023-12-14T13:48:24;4.60;;;3.63;;
9950;SDS011;24074;49.254;6.702;2023-12-14T13:50:53;4.33;;;3.90;;
9950;SDS011;24074;49.254;6.702;2023-12-14T13:53:19;4.47;;;3.43;;
9950;SDS011;24074;49.254;6.702;2023-12-14T13:55:45;4.87;;;3.60;;
9950;SDS011;24074;49.254;6.702;2023-12-14T13:58:11;4.27;;;3.80;;
9950;SDS011;24074;49.254;6.702;2023-12-14T14:00:37;4.47;;;3.57;;
9950;SDS011;24074;49.254;6.702;2023-12-14T14:03:03;4.83;;;3.83;;
9950;SDS011;24074;49.254;6.702;2023-12-14T14:05:30;5.03;;;3.50;;
9950;SDS011;24074;49.254;6.702;2023-12-14T14:07:56;5.33;;;3.83;;
9950;SDS011;24074;49.254;6.702;2023-12-14T14:10:22;4.67;;;3.53;;
9950;SDS011;24074;49.254;6.702;2023-12-14T14:12:47;4.30;;;3.63;;
9950;SDS011;24074;49.254;6.702;2023-12-14T14:15:13;4.23;;;3.33;;
9950;SDS011;24074;49.254;6.702;2023-12-14T14:17:39;5.03;;;3.80;;
9950;SDS011;24074;49.254;6.702;2023-12-14T14:20:05;5.00;;;3.37;;
9950;SDS011;24074;49.254;6.702;2023-12-14T14:22:32;4.07;;;3.47;;
9950;SDS011;24074;49.254;6.702;2023-12-14T14:24:58;5.07;;;3.33;;
9950;SDS011;24074;49.254;6.702;2023-12-14T14:27:25;4.93;;;3.97;;
9950;SDS011;24074;49.254;6.702;2023-12-14T14:29:50;5.07;;;4.13;;
9950;SDS011;24074;49.254;6.702;2023-12-14T14:32:19;4.63;;;3.57;;
9950;SDS011;24074;49.254;6.702;2023-12-14T14:34:44;4.40;;;3.60;;
9950;SDS011;24074;49.254;6.702;2023-12-14T14:37:10;4.83;;;3.67;;
9950;SDS011;24074;49.254;6.702;2023-12-14T14:39:35;4.37;;;3.30;;
9950;SDS011;24074;49.254;6.702;2023-12-14T14:42:04;4.57;;;3.60;;
9950;SDS011;24074;49.254;6.702;2023-12-14T14:44:30;3.63;;;3.27;;
9950;SDS011;24074;49.254;6.702;2023-12-14T14:46:55;4.20;;;3.40;;
9950;SDS011;24074;49.254;6.702;2023-12-14T14:49:21;4.10;;;3.17;;
9950;SDS011;24074;49.254;6.702;2023-12-14T14:51:47;4.03;;;3.33;;
9950;SDS011;24074;49.254;6.702;2023-12-14T14:54:12;4.67;;;3.60;;
9950;SDS011;24074;49.254;6.702;2023-12-14T14:56:38;3.90;;;3.07;;
9950;SDS011;24074;49.254;6.702;2023-12-14T14:59:04;7.00;;;3.77;;